Time;durP1;ratioP1;P1;durP2;ratioP2;P2;SDS_P1;SDS_P2;PMS_P1;PMS_P2;Temp;Humidity;BMP_temperature;BMP_pressure;BME280_temperature;BME280_humidity;BME280_pressure;Samples;Min_cycle;Max_cycle;Signal;HPM_P1;HPM_P2
2022/03/08 00:01:54;;;;;;;13.13;7.72;;;0.90;99.90;;;;;;4991925;28;20047;-75
2022/03/08 00:04:20;;;;;;;12.57;8.35;;;1.00;99.90;;;;;;4993671;28;20073;-74
2022/03/08 00:06:46;;;;;;;12.13;8.00;;;1.20;99.90;;;;;;4989605;28;20051;-75
2022/03/08 00:09:12;;;;;;;14.23;8.68;;;1.40;99.90;;;;;;4968012;28;20058;-75
2022/03/08 00:11:37;;;;;;;13.30;8.02;;;1.60;99.90;;;;;;4971777;28;20051;-75
2022/03/08 00:14:03;;;;;;;12.07;8.15;;;1.70;99.90;;;;;;4988407;28;20071;-75
2022/03/08 00:16:29;;;;;;;12.77;7.82;;;1.90;99.90;;;;;;4987549;28;20061;-75
2022/03/08 00:18:55;;;;;;;11.70;8.10;;;1.80;99.90;;;;;;4986665;28;20058;-75
2022/03/08 00:21:21;;;;;;;13.35;8.27;;;1.70;99.90;;;;;;4970972;28;20073;-75
2022/03/08 00:23:47;;;;;;;13.88;8.23;;;1.80;99.90;;;;;;4989537;28;20034;-75
2022/03/08 00:26:13;;;;;;;13.57;7.85;;;1.80;99.90;;;;;;4986476;28;20543;-75
2022/03/08 00:28:39;;;;;;;12.32;7.97;;;1.80;99.90;;;;;;4990436;28;20059;-75
2022/03/08 00:31:05;;;;;;;13.15;9.20;;;1.70;99.90;;;;;;4990690;28;20046;-74
2022/03/08 00:33:30;;;;;;;13.55;7.88;;;1.60;99.90;;;;;;4993469;28;20049;-75
2022/03/08 00:35:56;;;;;;;12.35;8.25;;;1.50;99.90;;;;;;4970615;28;20118;-75
2022/03/08 00:38:24;;;;;;;13.40;8.45;;;1.50;99.90;;;;;;4990946;28;20058;-75
2022/03/08 00:40:50;;;;;;;13.27;7.72;;;1.40;99.90;;;;;;4987062;28;20129;-75
2022/03/08 00:43:15;;;;;;;14.30;7.28;;;1.40;99.90;;;;;;4991897;28;20487;-75
2022/03/08 00:45:42;;;;;;;15.75;8.50;;;1.30;99.90;;;;;;4987477;28;20054;-75
2022/03/08 00:48:07;;;;;;;14.15;8.52;;;1.30;99.90;;;;;;4987970;28;20038;-75
2022/03/08 00:50:34;;;;;;;12.35;8.25;;;1.10;99.90;;;;;;4987256;28;20060;-74
2022/03/08 00:53:00;;;;;;;14.60;9.13;;;0.90;99.90;;;;;;4971801;28;20082;-75
2022/03/08 00:55:28;;;;;;;12.25;8.32;;;0.80;99.90;;;;;;4988244;28;20047;-75
2022/03/08 00:57:54;;;;;;;15.02;9.13;;;0.70;99.90;;;;;;4990932;28;20137;-75
2022/03/08 01:00:23;;;;;;;16.45;9.75;;;0.60;99.90;;;;;;4992149;28;20101;-75
2022/03/08 01:02:49;;;;;;;14.13;9.48;;;0.60;99.90;;;;;;4991853;28;20049;-74
2022/03/08 01:05:15;;;;;;;15.43;8.45;;;0.50;99.90;;;;;;4990203;28;20051;-75
2022/03/08 01:07:41;;;;;;;14.15;8.30;;;0.50;99.90;;;;;;4991343;28;20265;-75
2022/03/08 01:10:11;;;;;;;13.95;8.48;;;0.50;99.90;;;;;;4989382;28;20113;-75
2022/03/08 01:12:37;;;;;;;13.88;8.98;;;0.40;99.90;;;;;;4991537;28;20047;-75
2022/03/08 01:15:05;;;;;;;13.98;7.85;;;0.40;99.90;;;;;;4987883;28;20101;-75
2022/03/08 01:17:31;;;;;;;12.30;7.63;;;0.20;99.90;;;;;;4989707;28;20069;-74
2022/03/08 01:19:57;;;;;;;12.43;7.43;;;0.00;99.90;;;;;;4988462;28;20071;-75
2022/03/08 01:22:23;;;;;;;12.80;7.75;;;-0.10;99.90;;;;;;4974298;28;20058;-76
2022/03/08 01:24:49;;;;;;;11.55;7.50;;;-0.20;99.90;;;;;;4986305;28;20078;-76
2022/03/08 01:27:16;;;;;;;14.77;9.05;;;-0.10;99.90;;;;;;4989992;28;20070;-75
2022/03/08 01:29:42;;;;;;;12.77;7.85;;;-0.20;99.90;;;;;;4971659;28;20042;-76
2022/03/08 01:32:08;;;;;;;13.90;8.27;;;-0.10;99.90;;;;;;4987552;28;20503;-76
2022/03/08 01:34:36;;;;;;;14.30;8.15;;;-0.10;99.90;;;;;;4987298;28;20049;-77
2022/03/08 01:37:03;;;;;;;12.73;7.95;;;-0.10;99.90;;;;;;4987448;28;20050;-77
2022/03/08 01:39:29;;;;;;;14.57;8.00;;;-0.20;99.90;;;;;;4985673;28;20055;-76
2022/03/08 01:41:55;;;;;;;13.48;8.60;;;-0.20;99.90;;;;;;4990348;28;20161;-76
2022/03/08 01:44:21;;;;;;;12.95;8.50;;;-0.20;99.90;;;;;;4991801;28;20034;-75
2022/03/08 01:46:47;;;;;;;14.52;8.38;;;-0.30;99.90;;;;;;4985499;28;20069;-74
2022/03/08 01:49:14;;;;;;;13.15;8.10;;;-0.30;99.90;;;;;;4989210;28;20061;-74
2022/03/08 01:51:42;;;;;;;14.23;8.68;;;-0.30;99.90;;;;;;4985658;28;20058;-74
2022/03/08 01:54:08;;;;;;;15.32;8.40;;;-0.30;99.90;;;;;;4986724;28;20039;-74
2022/03/08 01:56:34;;;;;;;15.00;9.15;;;-0.20;99.90;;;;;;4986193;28;20059;-74
2022/03/08 01:59:01;;;;;;;15.00;9.02;;;-0.10;99.90;;;;;;4986883;28;20043;-75
2022/03/08 02:01:26;;;;;;;16.05;9.18;;;-0.20;99.90;;;;;;4984813;28;20126;-75
2022/03/08 02:03:53;;;;;;;13.20;8.43;;;-0.30;99.90;;;;;;4987418;28;20118;-74
2022/03/08 02:06:18;;;;;;;13.15;8.27;;;-0.40;99.90;;;;;;4985920;28;20090;-74
2022/03/08 02:08:45;;;;;;;13.45;7.78;;;-0.60;99.90;;;;;;4986141;28;20155;-74
2022/03/08 02:11:11;;;;;;;14.27;8.23;;;-0.60;99.90;;;;;;4985716;28;20487;-74
2022/03/08 02:13:38;;;;;;;15.43;9.18;;;-0.60;99.90;;;;;;4991961;28;20058;-74
2022/03/08 02:16:05;;;;;;;15.95;8.85;;;-0.50;99.90;;;;;;4988936;28;20047;-74
2022/03/08 02:18:31;;;;;;;10.90;7.25;;;-0.40;99.90;;;;;;4988426;28;20054;-74
2022/03/08 02:21:03;;;;;;;12.77;8.35;;;-0.40;99.90;;;;;;4992387;28;20109;-74
2022/03/08 02:23:29;;;;;;;11.52;8.05;;;-0.60;99.90;;;;;;4986026;28;20077;-74
2022/03/08 02:25:55;;;;;;;10.57;7.60;;;-0.80;99.90;;;;;;4985234;28;20133;-75
2022/03/08 02:28:21;;;;;;;14.25;8.60;;;-1.00;99.90;;;;;;4987261;28;20102;-75
2022/03/08 02:30:47;;;;;;;16.90;9.45;;;-1.10;99.90;;;;;;4986420;28;20050;-75
2022/03/08 02:33:13;;;;;;;16.77;9.45;;;-1.00;99.90;;;;;;4989841;28;20049;-75
2022/03/08 02:35:39;;;;;;;15.60;9.52;;;-0.90;99.90;;;;;;4985754;28;20051;-75
2022/03/08 02:38:06;;;;;;;14.98;8.95;;;-0.90;99.90;;;;;;4973809;28;20069;-75
2022/03/08 02:40:36;;;;;;;17.40;9.80;;;-0.80;99.90;;;;;;4986249;28;20086;-75
2022/03/08 02:43:04;;;;;;;17.40;10.45;;;-0.60;99.90;;;;;;4989472;28;20046;-75
2022/03/08 02:45:30;;;;;;;17.05;9.07;;;-0.50;99.90;;;;;;4994313;28;20047;-75
2022/03/08 02:47:56;;;;;;;13.88;8.43;;;-0.50;99.90;;;;;;4988330;28;20089;-75
2022/03/08 02:50:23;;;;;;;15.75;9.75;;;-0.50;99.90;;;;;;4984184;28;20089;-75
2022/03/08 02:52:51;;;;;;;15.15;9.43;;;-0.40;99.90;;;;;;4989351;28;20598;-75
2022/03/08 02:55:19;;;;;;;16.42;9.98;;;-0.40;99.90;;;;;;4984863;28;20050;-75
2022/03/08 02:57:45;;;;;;;16.67;9.90;;;-0.40;99.90;;;;;;4989557;28;20101;-75
2022/03/08 03:00:13;;;;;;;16.20;9.50;;;-0.50;99.90;;;;;;4988340;28;20073;-75
2022/03/08 03:02:39;;;;;;;17.58;9.30;;;-0.50;99.90;;;;;;4990548;28;20472;-75
2022/03/08 03:05:06;;;;;;;14.02;9.05;;;-0.60;99.90;;;;;;4988032;28;20105;-75
2022/03/08 03:07:32;;;;;;;15.48;9.13;;;-0.60;99.90;;;;;;4974617;28;20050;-75
2022/03/08 03:09:58;;;;;;;15.38;9.40;;;-0.80;99.90;;;;;;4985302;28;20046;-75
2022/03/08 03:12:24;;;;;;;15.20;9.32;;;-0.90;99.90;;;;;;4984525;28;20138;-74
2022/03/08 03:14:50;;;;;;;16.42;9.27;;;-1.10;99.90;;;;;;4986606;28;20054;-74
2022/03/08 03:17:17;;;;;;;16.42;9.15;;;-1.10;99.90;;;;;;4990120;28;20046;-74
2022/03/08 03:19:43;;;;;;;17.08;9.80;;;-1.30;99.90;;;;;;4970962;28;20134;-74
2022/03/08 03:22:09;;;;;;;18.23;9.93;;;-1.20;99.90;;;;;;4985571;28;20062;-74
2022/03/08 03:24:35;;;;;;;15.63;9.32;;;-1.20;99.90;;;;;;4984074;28;20125;-74
2022/03/08 03:27:00;;;;;;;16.42;10.30;;;-1.20;99.90;;;;;;4989347;28;20038;-74
2022/03/08 03:29:26;;;;;;;14.07;8.60;;;-1.20;99.90;;;;;;4986315;28;20039;-75
2022/03/08 03:31:52;;;;;;;12.95;8.20;;;-1.20;99.90;;;;;;4986731;28;20554;-75
2022/03/08 03:34:17;;;;;;;15.35;10.15;;;-1.30;99.90;;;;;;4983485;28;20074;-76
2022/03/08 03:36:43;;;;;;;14.93;8.73;;;-1.50;99.90;;;;;;4987416;28;20050;-76
2022/03/08 03:39:09;;;;;;;14.73;9.20;;;-1.50;99.90;;;;;;4987757;28;20523;-76
2022/03/08 03:41:35;;;;;;;16.42;9.50;;;-1.40;99.90;;;;;;4988354;28;20176;-77
2022/03/08 03:44:00;;;;;;;16.15;9.13;;;-1.40;99.90;;;;;;4987788;28;20039;-77
2022/03/08 03:46:26;;;;;;;17.05;8.73;;;-1.30;99.90;;;;;;4989698;28;20069;-77
2022/03/08 03:48:52;;;;;;;12.43;8.40;;;-1.40;99.90;;;;;;4971974;28;20073;-78
2022/03/08 03:51:18;;;;;;;12.02;8.50;;;-1.50;99.90;;;;;;4988007;28;20442;-76
2022/03/08 03:53:44;;;;;;;12.70;8.10;;;-1.50;99.90;;;;;;4970189;28;20054;-76
2022/03/08 03:56:10;;;;;;;11.73;7.47;;;-1.60;99.90;;;;;;4988086;28;20057;-76
2022/03/08 03:58:36;;;;;;;16.67;9.25;;;-1.50;99.90;;;;;;4990202;28;20054;-76
2022/03/08 04:01:02;;;;;;;17.98;11.00;;;-1.50;99.90;;;;;;4991587;28;20082;-75
2022/03/08 04:03:28;;;;;;;17.27;10.50;;;-1.40;99.90;;;;;;4968772;28;20059;-75
2022/03/08 04:05:53;;;;;;;14.45;9.35;;;-1.20;99.90;;;;;;4985841;28;20102;-75
2022/03/08 04:08:20;;;;;;;16.38;9.63;;;-1.30;99.90;;;;;;4972769;28;20054;-75
2022/03/08 04:10:50;;;;;;;17.05;9.82;;;-1.20;99.90;;;;;;4986085;28;20502;-75
2022/03/08 04:13:16;;;;;;;;;;;-1.10;99.90;;;;;;4972439;28;20066;-75
2022/03/08 04:15:42;;;;;;;16.00;9.52;;;-1.10;99.90;;;;;;4987972;28;19922;-75
2022/03/08 04:18:08;;;;;;;18.45;9.30;;;-1.20;99.90;;;;;;4984003;28;20057;-75
2022/03/08 04:20:34;;;;;;;17.10;9.60;;;-1.30;99.90;;;;;;4967516;28;20042;-75
2022/03/08 04:23:00;;;;;;;16.42;10.13;;;-1.30;99.90;;;;;;4988104;28;20039;-75
2022/03/08 04:25:26;;;;;;;18.58;11.07;;;-1.30;99.90;;;;;;4987114;28;20051;-75
2022/03/08 04:27:52;;;;;;;14.93;9.27;;;-1.30;99.90;;;;;;4985101;28;20046;-75
2022/03/08 04:30:18;;;;;;;19.60;10.65;;;-1.10;99.90;;;;;;4984362;28;20103;-75
2022/03/08 04:32:44;;;;;;;19.10;10.32;;;-1.20;99.90;;;;;;4985596;28;20091;-74
2022/03/08 04:35:09;;;;;;;19.98;10.93;;;-1.10;99.90;;;;;;4970052;28;20043;-74
2022/03/08 04:37:35;;;;;;;19.55;10.50;;;-1.00;99.90;;;;;;4969521;28;20047;-74
2022/03/08 04:40:03;;;;;;;17.02;10.32;;;-1.10;99.90;;;;;;4970857;28;20051;-75
2022/03/08 04:42:29;;;;;;;16.95;10.30;;;-1.10;99.90;;;;;;4990515;28;20094;-74
2022/03/08 04:44:54;;;;;;;17.92;11.20;;;-1.10;99.90;;;;;;4990804;28;20051;-74
2022/03/08 04:47:20;;;;;;;16.08;9.80;;;-1.10;99.90;;;;;;4990341;28;20439;-74
2022/03/08 04:49:46;;;;;;;16.60;9.45;;;-1.10;99.90;;;;;;4975457;28;20113;-74
2022/03/08 04:52:12;;;;;;;16.65;10.68;;;-1.20;99.90;;;;;;4988149;28;20051;-74
2022/03/08 04:54:37;;;;;;;18.02;10.70;;;-1.10;99.90;;;;;;4990786;28;20054;-75
2022/03/08 04:57:03;;;;;;;18.58;10.57;;;-1.10;99.90;;;;;;4989634;28;20046;-74
2022/03/08 04:59:29;;;;;;;17.70;10.63;;;-1.10;99.90;;;;;;4991099;28;20047;-74
2022/03/08 05:01:55;;;;;;;22.85;12.93;;;-1.20;99.90;;;;;;4991227;28;20402;-74
2022/03/08 05:04:21;;;;;;;19.70;11.45;;;-1.10;99.90;;;;;;4988487;28;20062;-74
2022/03/08 05:06:47;;;;;;;17.48;11.05;;;-1.10;99.90;;;;;;4988204;28;20049;-75
2022/03/08 05:09:13;;;;;;;18.92;11.18;;;-1.10;99.90;;;;;;4991454;28;20050;-74
2022/03/08 05:11:39;;;;;;;17.52;10.82;;;-1.00;99.90;;;;;;4990477;28;20081;-74
2022/03/08 05:14:05;;;;;;;21.23;11.77;;;-1.00;99.90;;;;;;4986691;28;20054;-74
2022/03/08 05:16:31;;;;;;;20.00;11.70;;;-1.00;99.90;;;;;;4987563;28;20050;-74
2022/03/08 05:18:57;;;;;;;21.00;11.27;;;-1.20;99.90;;;;;;4986665;28;20051;-75
2022/03/08 05:21:23;;;;;;;18.48;11.52;;;-1.20;99.90;;;;;;4971060;28;20046;-75
2022/03/08 05:23:49;;;;;;;24.30;13.02;;;-1.10;99.90;;;;;;4985564;28;20046;-75
2022/03/08 05:26:15;;;;;;;21.48;11.85;;;-1.20;99.90;;;;;;5003408;28;20042;-75
2022/03/08 05:28:46;;;;;;;22.80;12.68;;;-1.20;99.90;;;;;;4986369;28;20051;-75
2022/03/08 05:31:13;;;;;;;22.27;13.02;;;-1.20;99.90;;;;;;4988928;28;20769;-75
2022/03/08 05:33:39;;;;;;;23.00;13.15;;;-1.40;99.90;;;;;;4972173;28;20050;-75
2022/03/08 05:36:05;;;;;;;24.40;13.98;;;-1.10;99.90;;;;;;4987569;28;20062;-76
2022/03/08 05:38:31;;;;;;;22.80;14.07;;;-1.20;99.90;;;;;;4963888;28;20050;-75
2022/03/08 05:40:57;;;;;;;20.60;13.20;;;-1.20;99.90;;;;;;4990523;28;20053;-76
2022/03/08 05:43:23;;;;;;;23.67;13.27;;;-1.10;99.90;;;;;;4992932;28;20046;-76
2022/03/08 05:45:49;;;;;;;24.63;13.52;;;-1.10;99.90;;;;;;4974119;28;20068;-75
2022/03/08 05:48:15;;;;;;;26.33;13.57;;;-1.10;99.90;;;;;;4954336;28;20047;-75
2022/03/08 05:50:40;;;;;;;20.27;12.75;;;-1.20;99.90;;;;;;4976083;28;20054;-76
2022/03/08 05:53:06;;;;;;;20.25;12.65;;;-1.20;99.90;;;;;;4972861;28;20089;-77
2022/03/08 05:55:32;;;;;;;21.48;12.65;;;-1.20;99.90;;;;;;4994174;28;20039;-78
2022/03/08 05:57:58;;;;;;;22.02;13.52;;;-1.10;99.90;;;;;;4975424;28;20054;-76
2022/03/08 06:00:23;;;;;;;22.52;13.55;;;-1.20;99.90;;;;;;4995607;28;20050;-77
2022/03/08 06:02:49;;;;;;;22.73;14.52;;;-1.10;99.90;;;;;;4992322;28;20070;-78
2022/03/08 06:05:15;;;;;;;26.38;14.88;;;-1.10;99.90;;;;;;4951795;28;20073;-79
2022/03/08 06:07:40;;;;;;;27.67;15.43;;;-1.10;99.90;;;;;;4973302;28;20043;-78
2022/03/08 06:10:08;;;;;;;28.08;15.15;;;-1.10;99.90;;;;;;4970205;28;20140;-80
2022/03/08 06:12:35;;;;;;;25.50;15.07;;;-1.10;99.90;;;;;;4977374;28;20057;-79
2022/03/08 06:15:00;;;;;;;22.73;13.93;;;-1.00;99.90;;;;;;4985418;28;20042;-74
2022/03/08 06:17:26;;;;;;;26.85;14.98;;;-1.10;99.90;;;;;;4974527;28;20058;-74
2022/03/08 06:19:52;;;;;;;25.75;15.95;;;-1.00;99.90;;;;;;4966601;28;20057;-74
2022/03/08 06:22:17;;;;;;;23.02;14.57;;;-1.00;99.90;;;;;;4966203;28;20068;-72
2022/03/08 06:24:43;;;;;;;26.08;15.93;;;-0.80;99.90;;;;;;4958836;28;20046;-72
2022/03/08 06:27:09;;;;;;;24.73;15.38;;;-0.80;99.90;;;;;;4980394;28;20038;-72
2022/03/08 06:29:34;;;;;;;25.67;15.57;;;-0.70;99.90;;;;;;4984862;28;20042;-72
2022/03/08 06:32:00;;;;;;;24.65;15.07;;;-0.80;99.90;;;;;;4964643;28;20076;-72
2022/03/08 06:34:26;;;;;;;24.77;15.27;;;-0.60;99.90;;;;;;4992682;28;20089;-72
2022/03/08 06:36:52;;;;;;;28.75;16.00;;;-0.50;99.90;;;;;;4952826;28;20062;-72
2022/03/08 06:39:17;;;;;;;26.67;15.70;;;-0.50;99.90;;;;;;4987167;28;20077;-72
2022/03/08 06:41:43;;;;;;;26.90;15.50;;;-0.70;99.90;;;;;;4959322;28;20055;-72
2022/03/08 06:44:10;;;;;;;28.08;15.25;;;-0.60;99.90;;;;;;4984275;28;20189;-72
2022/03/08 06:46:37;;;;;;;27.30;15.40;;;-0.60;99.90;;;;;;4982619;28;20054;-72
2022/03/08 06:49:03;;;;;;;28.75;15.30;;;-0.50;99.90;;;;;;4987227;28;20058;-73
2022/03/08 06:51:28;;;;;;;29.95;17.20;;;-0.50;99.90;;;;;;4976766;28;20054;-72
2022/03/08 06:53:54;;;;;;;31.25;18.70;;;-0.40;99.90;;;;;;4969313;28;20041;-76
2022/03/08 06:56:20;;;;;;;31.48;19.90;;;-0.30;99.90;;;;;;4963726;28;20058;-80
2022/03/08 06:58:45;;;;;;;27.70;17.98;;;-0.20;99.90;;;;;;4981077;28;20071;-75
2022/03/08 07:01:11;;;;;;;27.60;17.20;;;-0.20;99.90;;;;;;4955751;28;20054;-75
2022/03/08 07:03:37;;;;;;;24.58;15.93;;;-0.20;99.90;;;;;;4984089;28;20035;-74
2022/03/08 07:06:05;;;;;;;27.90;17.85;;;-0.10;99.90;;;;;;4965553;28;20061;-75
2022/03/08 07:08:31;;;;;;;34.50;20.23;;;0.10;99.90;;;;;;4980635;28;20042;-75
2022/03/08 07:10:56;;;;;;;41.95;22.90;;;0.10;99.90;;;;;;4957606;28;20141;-75
2022/03/08 07:13:22;;;;;;;35.03;19.42;;;0.20;99.90;;;;;;4981807;28;20107;-75
2022/03/08 07:15:48;;;;;;;30.17;17.40;;;0.20;99.90;;;;;;4972148;28;20058;-75
2022/03/08 07:18:14;;;;;;;28.98;18.17;;;0.20;99.90;;;;;;4979388;28;20043;-74
2022/03/08 07:20:40;;;;;;;28.17;17.30;;;0.20;99.90;;;;;;4976388;28;20054;-75
2022/03/08 07:23:06;;;;;;;28.15;17.23;;;0.30;99.90;;;;;;4943798;28;20782;-75
2022/03/08 07:25:32;;;;;;;28.33;17.67;;;0.50;99.90;;;;;;4958450;28;20106;-75
2022/03/08 07:27:57;;;;;;;24.13;15.82;;;0.50;99.90;;;;;;4976729;28;20146;-75
2022/03/08 07:30:23;;;;;;;25.33;15.20;;;0.60;99.90;;;;;;4969269;28;20252;-74
2022/03/08 07:32:51;;;;;;;27.15;16.55;;;0.70;99.90;;;;;;4977415;28;20042;-74
2022/03/08 07:35:17;;;;;;;25.80;16.02;;;0.70;99.90;;;;;;4963144;28;20372;-75
2022/03/08 07:37:43;;;;;;;26.23;16.73;;;0.80;99.90;;;;;;4924387;28;20073;-74
2022/03/08 07:40:09;;;;;;;27.05;16.65;;;0.80;99.90;;;;;;4983232;28;20066;-75
2022/03/08 07:42:35;;;;;;;22.33;15.18;;;1.00;99.90;;;;;;4970737;28;20058;-75
2022/03/08 07:45:00;;;;;;;22.42;14.88;;;1.00;99.90;;;;;;4981653;28;20066;-77
2022/03/08 07:47:26;;;;;;;25.23;15.82;;;1.20;99.90;;;;;;4971264;28;20351;-75
2022/03/08 07:49:52;;;;;;;25.15;16.33;;;1.20;99.90;;;;;;4967504;28;20267;-77
2022/03/08 07:52:18;;;;;;;35.70;22.13;;;1.20;99.90;;;;;;4970958;28;20050;-76
2022/03/08 07:54:43;;;;;;;25.77;15.75;;;1.30;99.90;;;;;;4984168;28;20128;-77
2022/03/08 07:57:09;;;;;;;29.80;16.77;;;1.30;99.90;;;;;;4969752;28;20065;-76
2022/03/08 07:59:34;;;;;;;29.95;19.88;;;1.40;99.90;;;;;;4976497;28;20076;-75
2022/03/08 08:02:00;;;;;;;23.20;15.70;;;1.50;99.90;;;;;;4953022;28;20046;-75
2022/03/08 08:04:26;;;;;;;26.00;16.85;;;1.50;99.90;;;;;;4981627;28;20073;-75
2022/03/08 08:06:52;;;;;;;31.10;22.25;;;1.70;99.90;;;;;;4934889;28;20059;-75
2022/03/08 08:09:17;;;;;;;25.90;17.90;;;1.70;99.90;;;;;;4982968;28;20117;-74
2022/03/08 08:11:43;;;;;;;25.10;15.70;;;1.80;99.90;;;;;;4976390;28;20054;-74
2022/03/08 08:14:09;;;;;;;27.35;16.45;;;1.70;99.90;;;;;;4965575;28;20038;-74
2022/03/08 08:16:35;;;;;;;23.90;15.60;;;1.90;99.90;;;;;;4972727;28;20055;-74
2022/03/08 08:19:00;;;;;;;27.30;17.00;;;2.00;99.90;;;;;;4965023;28;20035;-74
2022/03/08 08:21:26;;;;;;;25.05;16.15;;;2.10;99.90;;;;;;4976202;28;20182;-74
2022/03/08 08:23:52;;;;;;;20.95;14.93;;;2.20;99.90;;;;;;4967052;28;20986;-75
2022/03/08 08:26:18;;;;;;;23.83;15.27;;;2.30;99.90;;;;;;4969697;28;21721;-74
2022/03/08 08:28:44;;;;;;;22.35;15.55;;;2.40;99.90;;;;;;4979433;28;20057;-73
2022/03/08 08:31:09;;;;;;;23.15;14.95;;;2.50;99.90;;;;;;4974732;28;20053;-74
2022/03/08 08:33:35;;;;;;;22.73;14.48;;;2.60;99.90;;;;;;4979324;28;20046;-74
2022/03/08 08:36:02;;;;;;;20.95;15.52;;;2.80;99.90;;;;;;4975951;28;20047;-74
2022/03/08 08:38:28;;;;;;;21.30;14.80;;;3.00;99.90;;;;;;4972142;28;20668;-74
2022/03/08 08:40:54;;;;;;;21.42;14.43;;;3.10;99.90;;;;;;4975849;28;20050;-74
2022/03/08 08:43:20;;;;;;;21.67;14.63;;;3.00;99.90;;;;;;4979175;28;20092;-74
2022/03/08 08:45:51;;;;;;;20.92;13.73;;;3.10;99.90;;;;;;4960211;28;20335;-74
2022/03/08 08:48:17;;;;;;;22.92;15.32;;;3.30;99.90;;;;;;4955735;28;20046;-74
2022/03/08 08:50:43;;;;;;;22.70;14.45;;;3.30;99.90;;;;;;4955314;28;20078;-74
2022/03/08 08:53:09;;;;;;;20.50;14.40;;;3.50;99.90;;;;;;4965570;28;20049;-74
2022/03/08 08:55:36;;;;;;;19.67;13.88;;;3.50;99.90;;;;;;4986021;28;20712;-74
2022/03/08 08:58:06;;;;;;;20.95;13.50;;;3.70;99.90;;;;;;4962613;28;20085;-74
2022/03/08 09:00:32;;;;;;;21.00;13.98;;;3.80;99.90;;;;;;4987034;28;20042;-74
2022/03/08 09:02:58;;;;;;;19.00;12.55;;;3.90;99.90;;;;;;4971233;28;20051;-74
2022/03/08 09:05:23;;;;;;;19.05;13.55;;;4.00;99.90;;;;;;4982009;28;20109;-74
2022/03/08 09:07:49;;;;;;;20.55;13.50;;;4.20;99.90;;;;;;4970757;28;20497;-74
2022/03/08 09:10:16;;;;;;;19.20;13.77;;;4.20;99.90;;;;;;4982354;28;20454;-73
2022/03/08 09:12:48;;;;;;;20.35;14.65;;;4.40;99.90;;;;;;4989045;28;20122;-73
2022/03/08 09:15:14;;;;;;;19.35;13.75;;;4.50;99.90;;;;;;4984739;28;20590;-74
2022/03/08 09:17:40;;;;;;;17.50;12.73;;;4.70;99.90;;;;;;4971149;28;20093;-72
2022/03/08 09:20:07;;;;;;;19.23;14.85;;;4.80;99.90;;;;;;4976543;28;20039;-73
2022/03/08 09:22:32;;;;;;;20.48;14.60;;;5.00;99.90;;;;;;4975978;28;20054;-73
2022/03/08 09:24:58;;;;;;;21.10;13.38;;;5.00;99.90;;;;;;4983547;28;20050;-73
2022/03/08 09:27:24;;;;;;;17.30;12.60;;;5.20;99.90;;;;;;4973423;28;20054;-72
2022/03/08 09:29:50;;;;;;;19.60;13.93;;;5.60;99.90;;;;;;4984726;28;20043;-74
2022/03/08 09:32:17;;;;;;;26.35;17.05;;;5.70;99.90;;;;;;4967467;28;20050;-72
2022/03/08 09:34:42;;;;;;;15.95;11.95;;;5.80;99.90;;;;;;4985092;28;20048;-73
2022/03/08 09:37:09;;;;;;;16.92;12.20;;;5.90;99.90;;;;;;4962840;28;20054;-73
2022/03/08 09:39:35;;;;;;;17.08;12.00;;;6.20;99.90;;;;;;4982213;28;20043;-73
2022/03/08 09:42:02;;;;;;;15.85;11.05;;;6.20;99.90;;;;;;4955687;28;20124;-73
2022/03/08 09:44:29;;;;;;;16.38;11.10;;;6.50;99.90;;;;;;4968023;28;20054;-74
2022/03/08 09:46:56;;;;;;;15.55;10.70;;;6.60;99.90;;;;;;4958665;28;20042;-72
2022/03/08 09:49:22;;;;;;;15.32;9.48;;;6.70;99.90;;;;;;4979463;28;20054;-69
2022/03/08 09:51:50;;;;;;;14.23;9.55;;;6.80;99.90;;;;;;4974156;28;20665;-68
2022/03/08 09:54:15;;;;;;;14.05;9.50;;;7.00;99.90;;;;;;4983852;28;20047;-67
2022/03/08 09:56:42;;;;;;;11.55;8.77;;;7.10;99.90;;;;;;4981095;28;20065;-67
2022/03/08 09:59:07;;;;;;;12.43;9.00;;;7.40;99.90;;;;;;4989101;28;20054;-66
2022/03/08 10:01:33;;;;;;;12.15;8.95;;;7.50;99.90;;;;;;4979335;28;20140;-67
2022/03/08 10:03:59;;;;;;;14.05;9.30;;;7.50;99.90;;;;;;4984546;28;20557;-66
2022/03/08 10:06:39;;;;;;;11.93;9.18;;;7.50;99.90;;;;;;4978631;28;20050;-67
2022/03/08 10:09:14;;;;;;;12.65;8.70;;;7.50;99.90;;;;;;4980635;28;20055;-67
2022/03/08 10:11:39;;;;;;;10.27;8.48;;;7.60;99.90;;;;;;4976443;28;20050;-67
2022/03/08 10:14:06;;;;;;;13.80;9.13;;;7.80;99.90;;;;;;4979689;28;20043;-66
2022/03/08 10:16:53;;;;;;;12.50;8.98;;;7.80;99.90;;;;;;4975784;28;20057;-66
2022/03/08 10:19:18;;;;;;;11.45;8.48;;;8.00;99.90;;;;;;4988655;28;20049;-67
2022/03/08 10:21:48;;;;;;;11.02;8.55;;;8.00;99.90;;;;;;4974777;28;20312;-67
2022/03/08 10:24:18;;;;;;;10.00;8.60;;;8.00;99.90;;;;;;4984587;28;20573;-67
2022/03/08 10:26:47;;;;;;;10.35;8.55;;;8.00;99.90;;;;;;4982476;28;20081;-67
2022/03/08 10:29:13;;;;;;;11.35;8.95;;;8.00;99.90;;;;;;4982415;28;20170;-67
2022/03/08 10:31:39;;;;;;;13.68;9.32;;;8.10;99.90;;;;;;4976491;28;20493;-67
2022/03/08 10:34:08;;;;;;;10.27;8.13;;;8.00;99.90;;;;;;4978755;28;20118;-67
2022/03/08 10:36:37;;;;;;;11.77;9.00;;;8.20;99.90;;;;;;4977185;28;20566;-67
2022/03/08 10:39:13;;;;;;;12.18;9.30;;;8.20;99.90;;;;;;4980666;28;20522;-67
2022/03/08 10:41:51;;;;;;;11.02;8.90;;;8.30;99.90;;;;;;4974925;28;20055;-66
2022/03/08 10:44:31;;;;;;;12.55;9.10;;;8.30;99.90;;;;;;4983637;28;20094;-66
2022/03/08 10:47:02;;;;;;;11.02;8.48;;;8.30;99.90;;;;;;4972827;28;20815;-67
2022/03/08 10:49:28;;;;;;;12.73;8.93;;;8.30;99.90;;;;;;4982733;28;20125;-67
2022/03/08 10:52:05;;;;;;;9.88;8.15;;;8.30;99.90;;;;;;4970298;28;20062;-67
2022/03/08 10:54:33;;;;;;;10.90;8.18;;;8.40;99.90;;;;;;4978280;28;20106;-67
2022/03/08 10:56:59;;;;;;;10.85;7.97;;;8.50;99.90;;;;;;4972617;28;20050;-67
2022/03/08 10:59:25;;;;;;;10.15;7.88;;;8.50;99.90;;;;;;4980732;28;20074;-67
2022/03/08 11:01:51;;;;;;;9.68;7.30;;;8.60;99.90;;;;;;4972120;28;20046;-66
2022/03/08 11:04:19;;;;;;;14.18;8.13;;;8.50;99.90;;;;;;4977956;28;20066;-66
2022/03/08 11:06:47;;;;;;;11.50;7.88;;;8.60;99.90;;;;;;4978729;28;20057;-67
2022/03/08 11:09:14;;;;;;;10.30;7.75;;;8.60;99.90;;;;;;4982504;28;20109;-66
2022/03/08 11:11:39;;;;;;;8.77;6.80;;;8.70;99.90;;;;;;4963699;28;20124;-66
2022/03/08 11:14:05;;;;;;;11.15;7.07;;;8.80;99.90;;;;;;4987677;28;20481;-66
2022/03/08 11:16:32;;;;;;;10.05;6.47;;;8.80;99.90;;;;;;4978312;28;20065;-66
2022/03/08 11:18:59;;;;;;;8.63;6.15;;;8.80;99.90;;;;;;4981973;28;20046;-66
2022/03/08 11:21:26;;;;;;;6.88;5.95;;;8.90;99.90;;;;;;4976042;28;20598;-66
2022/03/08 11:23:54;;;;;;;8.88;6.35;;;8.90;99.90;;;;;;4982275;28;20062;-66
2022/03/08 11:26:20;;;;;;;7.90;6.45;;;9.00;99.90;;;;;;4982149;28;20058;-66
2022/03/08 11:28:48;;;;;;;9.82;6.82;;;9.20;99.90;;;;;;4980415;28;20043;-66
2022/03/08 11:31:17;;;;;;;9.85;7.53;;;9.20;99.90;;;;;;4979179;28;20074;-67
2022/03/08 11:33:48;;;;;;;7.93;6.22;;;9.20;99.90;;;;;;4987752;28;20058;-66
2022/03/08 11:36:31;;;;;;;11.32;5.70;;;9.20;99.90;;;;;;4980752;28;20035;-68
2022/03/08 11:39:12;;;;;;;23.80;11.05;;;9.30;99.90;;;;;;4969546;28;20058;-67
2022/03/08 11:41:37;;;;;;;;;;;9.40;99.90;;;;;;4970767;28;20461;-66
2022/03/08 11:44:04;;;;;;;9.57;5.93;;;9.40;99.90;;;;;;4996528;28;19936;-66
2022/03/08 11:46:29;;;;;;;9.38;5.50;;;9.50;99.90;;;;;;4977912;28;20466;-66
2022/03/08 11:49:01;;;;;;;12.32;7.40;;;9.60;99.90;;;;;;4972812;28;20047;-66
2022/03/08 11:51:30;;;;;;;11.02;6.85;;;9.60;99.90;;;;;;4979046;28;20433;-68
2022/03/08 11:54:24;;;;;;;20.27;10.32;;;9.60;99.90;;;;;;4972698;28;20085;-66
2022/03/08 11:56:52;;;;;;;9.85;6.75;;;9.50;99.90;;;;;;4957388;28;20473;-66
2022/03/08 11:59:18;;;;;;;14.45;7.32;;;9.60;99.90;;;;;;4995827;28;20046;-67
2022/03/08 12:01:44;;;;;;;10.95;5.93;;;9.70;99.90;;;;;;4977146;28;20050;-67
2022/03/08 12:04:19;;;;;;;9.45;6.15;;;9.90;99.90;;;;;;4995585;28;20034;-67
2022/03/08 12:06:58;;;;;;;6.40;5.22;;;9.90;99.90;;;;;;4980737;28;20542;-67
2022/03/08 12:09:25;;;;;;;8.65;5.22;;;10.10;99.30;;;;;;4982439;28;20047;-67
2022/03/08 12:12:00;;;;;;;7.53;5.47;;;10.10;99.70;;;;;;4973776;28;20561;-67
2022/03/08 12:14:27;;;;;;;8.63;5.38;;;10.30;97.90;;;;;;4982493;28;20046;-67
2022/03/08 12:17:09;;;;;;;8.45;5.80;;;10.40;98.00;;;;;;4978430;28;20058;-67
2022/03/08 12:19:52;;;;;;;15.05;8.13;;;10.50;97.20;;;;;;4971551;28;20043;-67
2022/03/08 12:22:32;;;;;;;8.80;5.60;;;10.50;97.20;;;;;;4980226;28;20058;-66
2022/03/08 12:24:59;;;;;;;9.83;5.73;;;10.60;96.90;;;;;;4989187;28;20047;-66
2022/03/08 12:27:46;;;;;;;7.25;5.05;;;10.70;95.10;;;;;;4979478;28;20062;-66
2022/03/08 12:30:12;;;;;;;7.10;5.57;;;10.90;94.80;;;;;;4975008;28;20499;-66
2022/03/08 12:32:43;;;;;;;7.32;5.25;;;11.10;94.20;;;;;;4978071;28;20065;-67
2022/03/08 12:35:20;;;;;;;7.85;5.40;;;11.40;95.20;;;;;;4986670;28;20050;-69
2022/03/08 12:37:47;;;;;;;6.88;5.20;;;12.00;92.90;;;;;;4964759;28;20052;-68